Aldbourne, United Kingdom
Current Conditions -  °F | °C
As of 7:22 PM on Thursday 23 Oct 2014 (Local Time) from EGVA Reporting Station
Light Rain Light Rain  
Wind Chill: 57°   Ceiling: 1400
Heat Index: 57°   Visibility: 6mi
Dew Point: 55°   Wind: 9mph
Humidity: 94%   Direction: 250°WSW
Pressure: 30.01"   Gusts: NA
Location:  51.48°N, 1.62°W
Report Text: EGVA 231822Z AUTO 25008KT 9999 -RA SCT008 OVC014 14/13 A3001 RMK AO2 RAB1814DZB1807E1814 CIG 009V016
Loading
Personal Weather Stations






























Interactive Weather Map
Tropical Storm Tracking
New forecast layout! Learn more

10-Day Weather Forecast

Advertisements
Track Severe Weather on mobile